Time;durP1;ratioP1;P1;durP2;ratioP2;P2;SDS_P1;SDS_P2;PMS_P1;PMS_P2;Temp;Humidity;BMP_temperature;BMP_pressure;BME280_temperature;BME280_humidity;BME280_pressure;Samples;Min_cycle;Max_cycle;Signal;HPM_P1;HPM_P2
2022/01/16 00:04:34;;;;;;;28.10;12.53;;;;;;;-0.34;69.89;95733.03;5066139;28;20186;-83
2022/01/16 00:07:03;;;;;;;18.13;9.20;;;;;;;-0.14;70.03;95758.13;5068255;28;20241;-84
2022/01/16 00:09:30;;;;;;;18.73;10.83;;;;;;;-0.32;70.60;95697.53;5068345;28;20195;-84
2022/01/16 00:11:59;;;;;;;18.60;9.30;;;;;;;-0.27;70.49;95703.19;5061796;28;20262;-85
2022/01/16 00:14:25;;;;;;;21.80;10.20;;;;;;;-0.35;70.88;95693.44;5058205;28;20159;-85
2022/01/16 00:16:51;;;;;;;22.60;10.67;;;;;;;-0.11;70.98;95729.44;5061049;28;20608;-85
2022/01/16 00:19:16;;;;;;;26.80;11.30;;;;;;;-0.18;70.76;95713.59;5064430;28;20190;-85
2022/01/16 00:21:42;;;;;;;29.43;13.37;;;;;;;-0.08;70.48;95726.59;5065674;28;20637;-85
2022/01/16 00:24:10;;;;;;;30.73;11.80;;;;;;;0.25;71.77;95795.53;5062145;28;20258;-84
2022/01/16 00:26:36;;;;;;;29.77;12.50;;;;;;;0.18;71.89;95782.22;5060085;28;20171;-85
2022/01/16 00:29:03;;;;;;;36.60;14.53;;;;;;;0.47;72.28;95833.44;5063293;28;20224;-84
2022/01/16 00:31:28;;;;;;;30.53;13.27;;;;;;;0.23;72.87;95851.78;5061152;28;20259;-84
2022/01/16 00:33:54;;;;;;;25.13;11.00;;;;;;;0.14;72.98;95787.78;5062780;28;21018;-85
2022/01/16 00:36:21;;;;;;;31.13;11.60;;;;;;;0.47;72.91;95729.84;5063057;28;20605;-85
2022/01/16 00:38:48;;;;;;;30.57;11.50;;;;;;;0.18;73.03;95720.13;5060078;28;20185;-84
2022/01/16 00:41:16;;;;;;;32.97;15.17;;;;;;;0.58;73.19;95810.91;5066002;28;20179;-83
2022/01/16 00:43:41;;;;;;;26.63;12.17;;;;;;;0.44;72.89;95668.75;5058906;28;20611;-83
2022/01/16 00:46:07;;;;;;;27.93;12.63;;;;;;;0.64;72.39;95667.09;5060312;28;20171;-85
2022/01/16 00:48:32;;;;;;;26.70;12.83;;;;;;;0.30;72.37;95680.28;5065990;28;20565;-85
2022/01/16 00:50:58;;;;;;;30.70;13.70;;;;;;;0.65;72.33;95643.66;5060211;28;20198;-86
2022/01/16 00:53:24;;;;;;;31.53;13.83;;;;;;;0.45;72.85;95594.47;5062608;28;20654;-86
2022/01/16 00:55:49;;;;;;;28.33;12.80;;;;;;;0.27;72.28;95612.41;5062889;28;20630;-86
2022/01/16 00:58:15;;;;;;;24.80;10.93;;;;;;;0.47;72.20;95605.53;5061545;28;20672;-84
2022/01/16 01:00:40;;;;;;;26.63;12.17;;;;;;;0.40;72.48;95610.41;5064317;28;20601;-85
2022/01/16 01:03:06;;;;;;;26.27;11.90;;;;;;;0.70;72.07;95702.81;5061447;28;20946;-84
2022/01/16 01:05:34;;;;;;;25.57;12.57;;;;;;;0.60;72.07;95725.28;5061542;28;20178;-85
2022/01/16 01:08:00;;;;;;;33.10;14.00;;;;;;;0.50;72.42;95688.97;5060311;28;20221;-85
2022/01/16 01:10:33;;;;;;;33.20;14.63;;;;;;;0.60;72.50;95692.44;5059159;28;20207;-84
2022/01/16 01:13:22;;;;;;;32.83;14.83;;;;;;;0.56;71.88;95734.25;5054774;28;20657;-85
2022/01/16 01:15:51;;;;;;;36.57;17.00;;;;;;;0.45;73.01;95735.13;5060284;28;20181;-85
2022/01/16 01:18:20;;;;;;;25.40;13.70;;;;;;;0.32;72.99;95688.75;5061135;28;20205;-85
2022/01/16 01:20:48;;;;;;;32.33;14.30;;;;;;;0.33;72.86;95699.94;5062467;28;20181;-85
2022/01/16 01:23:15;;;;;;;38.83;18.23;;;;;;;0.21;72.98;95688.81;5061936;28;20177;-84
2022/01/16 01:25:42;;;;;;;42.47;18.10;;;;;;;0.01;72.93;95650.81;5062606;28;20182;-84
2022/01/16 01:28:08;;;;;;;38.07;18.97;;;;;;;0.17;73.56;95708.16;5057506;28;20170;-84
2022/01/16 01:30:34;;;;;;;38.87;18.07;;;;;;;-0.06;73.72;95680.72;5062138;28;20191;-84
2022/01/16 01:32:59;;;;;;;33.40;16.20;;;;;;;-0.32;73.67;95635.47;5052952;28;20174;-84
2022/01/16 01:35:25;;;;;;;33.63;15.67;;;;;;;-0.29;73.76;95637.81;5053165;28;20156;-84
2022/01/16 01:37:51;;;;;;;36.43;16.83;;;;;;;0.13;73.41;95734.38;5052962;28;20204;-85
2022/01/16 01:40:21;;;;;;;33.87;16.47;;;;;;;-0.28;73.80;95660.16;5051449;28;20159;-85
2022/01/16 01:51:19;;;;;;;23.90;12.07;;;;;;;-0.08;74.72;95755.88;5053710;28;20286;-85
2022/01/16 01:53:44;;;;;;;26.50;12.70;;;;;;;-0.08;74.40;95745.53;5054540;28;20181;-84
2022/01/16 01:56:12;;;;;;;24.60;11.70;;;;;;;0.04;74.34;95748.91;5059332;28;20167;-84
2022/01/16 01:58:38;;;;;;;19.13;10.50;;;;;;;-0.32;74.81;95706.13;5059429;28;20173;-84
2022/01/16 02:01:04;;;;;;;20.63;8.97;;;;;;;-0.10;75.21;95731.09;5058391;28;20547;-85
2022/01/16 02:06:09;;;;;;;20.63;10.23;;;;;;;0.20;75.02;95764.00;5061239;28;20163;-84
2022/01/16 02:08:35;;;;;;;24.03;9.80;;;;;;;0.11;74.73;95744.88;5060039;28;20302;-85
2022/01/16 02:11:02;;;;;;;22.43;10.30;;;;;;;0.02;74.98;95735.25;5058073;28;20962;-85
2022/01/16 02:13:32;;;;;;;21.63;10.60;;;;;;;0.17;74.69;95775.44;5054817;28;20246;-85
2022/01/16 02:34:56;;;;;;;14.10;7.80;;;;;;;0.20;78.97;95720.00;5072435;28;20595;-85
2022/01/16 02:37:24;;;;;;;15.47;7.70;;;;;;;0.09;78.40;95684.63;5071027;28;20186;-86
2022/01/16 02:39:52;;;;;;;13.40;7.80;;;;;;;0.04;78.67;95675.63;5070796;28;20178;-86
2022/01/16 02:42:19;;;;;;;13.27;7.60;;;;;;;-0.13;78.84;95643.38;5072466;28;20212;-86
2022/01/16 02:44:49;;;;;;;15.90;8.13;;;;;;;0.51;78.37;95751.97;5071891;28;20163;-86
2022/01/16 02:47:18;;;;;;;13.90;8.70;;;;;;;-0.08;79.52;95701.53;5070824;28;20706;-85
2022/01/16 02:49:47;;;;;;;13.73;8.07;;;;;;;0.09;79.73;95723.44;5071909;28;20268;-86
2022/01/16 02:52:15;;;;;;;16.73;8.80;;;;;;;0.34;79.40;95750.75;5072130;28;20695;-86
2022/01/16 02:54:43;;;;;;;21.10;10.50;;;;;;;0.26;79.98;95746.19;5071802;28;20165;-85
2022/01/16 02:57:12;;;;;;;18.80;10.97;;;;;;;0.22;80.51;95738.81;5071249;28;20166;-85
2022/01/16 02:59:40;;;;;;;32.20;14.57;;;;;;;0.05;80.24;95693.63;5074608;28;20167;-85
2022/01/16 03:02:06;;;;;;;24.53;11.33;;;;;;;0.27;80.10;95724.53;5075846;28;20151;-85
2022/01/16 03:04:32;;;;;;;17.00;8.90;;;;;;;0.41;80.33;95735.53;5075685;28;20163;-85
2022/01/16 03:07:00;;;;;;;18.53;10.00;;;;;;;0.25;79.67;95721.28;5074220;28;20730;-85
2022/01/16 03:09:29;;;;;;;17.10;9.43;;;;;;;0.32;79.56;95711.22;5073943;28;20209;-86
2022/01/16 03:11:55;;;;;;;19.07;9.53;;;;;;;0.33;79.03;95700.75;5074284;28;20162;-85
2022/01/16 03:14:21;;;;;;;14.20;8.33;;;;;;;0.30;79.21;95692.41;5072949;28;20183;-85
2022/01/16 03:16:51;;;;;;;19.33;9.50;;;;;;;0.59;78.58;95739.19;5063265;28;20185;-85
2022/01/16 03:22:03;;;;;;;18.67;8.73;;;;;;;0.49;78.27;95705.47;5060968;28;20209;-85
2022/01/16 03:24:38;;;;;;;15.43;9.00;;;;;;;0.57;78.04;95720.34;5064735;28;20190;-85
2022/01/16 03:27:07;;;;;;;16.90;9.87;;;;;;;0.68;78.33;95743.59;5059062;28;20177;-84
2022/01/16 03:29:33;;;;;;;19.47;9.40;;;;;;;0.50;77.75;95711.47;5053938;28;20187;-84
2022/01/16 03:32:00;;;;;;;18.87;10.30;;;;;;;0.68;78.40;95743.59;5055144;28;20182;-84
2022/01/16 03:34:26;;;;;;;19.57;9.57;;;;;;;0.46;78.36;95707.47;5053962;28;20175;-85
2022/01/16 03:36:52;;;;;;;19.17;11.00;;;;;;;0.31;77.33;95694.88;5055303;28;20175;-85
2022/01/16 03:39:18;;;;;;;23.50;11.40;;;;;;;0.45;78.28;95723.97;5053830;28;20240;-86
2022/01/16 03:41:43;;;;;;;51.70;27.13;;;;;;;0.57;77.55;95754.84;5055084;28;20159;-85
2022/01/16 03:44:10;;;;;;;25.97;14.03;;;;;;;0.58;78.38;95756.50;5053741;28;20175;-85
2022/01/16 03:46:41;;;;;;;24.43;12.33;;;;;;;0.38;78.47;95729.66;5063302;28;20183;-85
2022/01/16 03:49:10;;;;;;;27.17;11.57;;;;;;;0.62;77.84;95757.03;5066823;28;20207;-85
2022/01/16 03:51:38;;;;;;;21.83;11.27;;;;;;;0.60;78.44;95761.56;5064423;28;20177;-86
2022/01/16 03:54:05;;;;;;;19.33;10.20;;;;;;;0.41;78.23;95726.00;5071778;28;20203;-85
2022/01/16 03:56:30;;;;;;;21.17;10.33;;;;;;;0.31;77.68;95720.75;5074626;28;20182;-85
2022/01/16 03:58:56;;;;;;;19.27;10.90;;;;;;;0.13;78.72;95740.38;5074643;28;20151;-85
2022/01/16 04:01:24;;;;;;;19.00;9.83;;;;;;;-0.04;79.42;95726.22;5073727;28;20174;-85
2022/01/16 04:03:50;;;;;;;17.37;9.80;;;;;;;-0.09;79.42;95712.03;5074562;28;20171;-86
2022/01/16 04:06:15;;;;;;;19.33;9.77;;;;;;;-0.26;79.60;95687.50;5074682;28;20154;-86
2022/01/16 04:08:40;;;;;;;19.90;10.37;;;;;;;-0.45;79.39;95679.63;5069265;28;20227;-85
2022/01/16 04:11:07;;;;;;;26.10;13.57;;;;;;;-0.22;79.83;95707.03;5053815;28;20199;-86
2022/01/16 04:13:33;;;;;;;28.60;13.47;;;;;;;-0.33;79.64;95682.97;5054558;28;20160;-86
2022/01/16 04:15:58;;;;;;;20.80;10.87;;;;;;;0.17;79.52;95759.91;5054682;28;20236;-86
2022/01/16 04:18:24;;;;;;;22.13;11.87;;;;;;;-0.07;78.60;95712.72;5055668;28;21074;-85
2022/01/16 04:20:50;;;;;;;23.67;11.50;;;;;;;0.16;79.03;95736.75;5054178;28;20586;-85
2022/01/16 04:23:15;;;;;;;21.27;11.47;;;;;;;0.46;78.93;95780.81;5056509;28;20166;-85
2022/01/16 04:25:41;;;;;;;22.13;11.13;;;;;;;0.08;79.04;95726.19;5066595;28;20171;-85
2022/01/16 04:28:06;;;;;;;17.73;10.73;;;;;;;0.47;77.84;95776.44;5066539;28;20175;-85
2022/01/16 04:30:32;;;;;;;25.60;11.80;;;;;;;0.43;77.64;95772.50;5063748;28;20210;-85
2022/01/16 04:32:58;;;;;;;21.50;11.57;;;;;;;0.53;77.97;95796.66;5060355;28;20673;-85
2022/01/16 04:35:23;;;;;;;18.03;9.70;;;;;;;0.28;77.81;95752.06;5053864;28;20175;-86
2022/01/16 04:37:49;;;;;;;17.53;10.30;;;;;;;0.27;77.73;95749.59;5054204;28;20209;-86
2022/01/16 04:40:16;;;;;;;17.07;9.77;;;;;;;0.27;77.52;95729.72;5052657;28;20156;-85
2022/01/16 04:45:27;;;;;;;26.60;12.87;;;;;;;0.69;76.99;95786.69;5055187;28;20179;-84
2022/01/16 04:47:53;;;;;;;25.57;13.70;;;;;;;0.68;77.92;95800.59;5054155;28;20548;-84
2022/01/16 04:50:21;;;;;;;26.30;13.90;;;;;;;0.43;77.33;95762.13;5052744;28;20575;-84
2022/01/16 04:52:48;;;;;;;28.80;15.17;;;;;;;0.75;77.13;95793.94;5052777;28;20199;-85
2022/01/16 04:55:15;;;;;;;28.07;15.07;;;;;;;0.67;77.03;95789.41;5052708;28;20170;-85
2022/01/16 04:57:41;;;;;;;35.83;18.03;;;;;;;0.67;77.30;95786.00;5052567;28;20206;-85
2022/01/16 05:00:11;;;;;;;48.47;20.93;;;;;;;0.40;76.94;95729.53;5054544;28;20527;-85
2022/01/16 05:02:36;;;;;;;61.83;28.67;;;;;;;0.59;76.53;95765.09;5055853;28;20561;-84
2022/01/16 05:05:02;;;;;;;52.73;24.30;;;;;;;0.60;76.90;95793.47;5054062;28;20179;-85
2022/01/16 05:07:28;;;;;;;47.53;21.13;;;;;;;0.50;76.83;95766.69;5054102;28;20231;-85
2022/01/16 05:09:53;;;;;;;60.10;24.60;;;;;;;0.35;77.21;95736.84;5052597;28;20628;-85
2022/01/16 05:12:27;;;;;;;47.67;22.47;;;;;;;0.53;77.43;95765.56;5052902;28;20930;-86
2022/01/16 05:17:36;;;;;;;38.23;17.80;;;;;;;0.57;77.71;95756.63;5053303;28;20162;-86
2022/01/16 05:20:02;;;;;;;35.63;17.53;;;;;;;0.65;77.15;95767.16;5051981;28;20167;-85
2022/01/16 05:22:28;;;;;;;35.67;16.10;;;;;;;0.45;77.16;95734.31;5057697;28;20190;-84
2022/01/16 05:24:53;;;;;;;34.97;16.87;;;;;;;0.80;77.64;95796.16;5065394;28;20180;-84
2022/01/16 05:27:18;;;;;;;27.37;14.77;;;;;;;0.20;77.45;95692.34;5060340;28;20179;-85
2022/01/16 05:29:44;;;;;;;35.50;17.83;;;;;;;0.39;77.00;95709.75;5054767;28;20252;-85
2022/01/16 05:32:09;;;;;;;30.63;14.67;;;;;;;0.94;76.86;95780.28;5055715;28;20179;-85
2022/01/16 05:34:35;;;;;;;35.27;16.07;;;;;;;0.69;76.87;95737.47;5065519;28;20170;-85
2022/01/16 05:37:00;;;;;;;28.97;14.77;;;;;;;1.09;77.10;95787.59;5072897;28;20170;-85
2022/01/16 05:39:26;;;;;;;30.27;14.67;;;;;;;0.71;76.54;95722.59;5073183;28;20151;-85
2022/01/16 05:41:51;;;;;;;24.27;12.97;;;;;;;0.83;75.96;95742.31;5071569;28;20254;-85
2022/01/16 05:44:16;;;;;;;28.27;14.00;;;;;;;0.94;76.16;95762.97;5072623;28;20649;-84
2022/01/16 05:46:42;;;;;;;27.70;13.60;;;;;;;1.12;76.17;95778.72;5073035;28;20155;-84
2022/01/16 05:49:07;;;;;;;25.97;13.17;;;;;;;0.90;75.35;95743.44;5072030;28;20193;-84
2022/01/16 05:51:33;;;;;;;29.33;13.20;;;;;;;0.48;76.36;95675.34;5072137;28;20174;-84
2022/01/16 05:53:58;;;;;;;25.53;13.00;;;;;;;1.06;76.51;95769.69;5072652;28;20650;-85
2022/01/16 05:56:24;;;;;;;21.53;11.63;;;;;;;0.85;75.65;95734.41;5071268;28;20158;-85
2022/01/16 05:58:50;;;;;;;28.73;14.20;;;;;;;1.28;75.57;95810.19;5067894;28;20649;-85
2022/01/16 06:01:15;;;;;;;27.27;13.20;;;;;;;0.87;74.91;95743.69;5060971;28;20251;-84
2022/01/16 06:03:40;;;;;;;25.13;12.77;;;;;;;0.84;74.86;95758.69;5059227;28;20560;-85
2022/01/16 06:06:06;;;;;;;19.27;12.07;;;;;;;0.81;75.48;95736.44;5062598;28;20179;-85
2022/01/16 06:08:31;;;;;;;24.03;14.57;;;;;;;1.24;75.13;95801.00;5070928;28;20226;-85
2022/01/16 06:10:57;;;;;;;30.43;15.67;;;;;;;0.99;75.34;95759.97;5071032;28;20190;-85
2022/01/16 06:13:22;;;;;;;32.53;15.50;;;;;;;1.01;75.32;95756.31;5071490;28;20197;-84
2022/01/16 06:15:48;;;;;;;37.90;19.03;;;;;;;1.16;74.94;95779.28;5071010;28;20190;-85
2022/01/16 06:18:14;;;;;;;33.37;17.10;;;;;;;1.45;74.26;95812.16;5072209;28;20648;-85
2022/01/16 06:20:41;;;;;;;35.37;17.47;;;;;;;0.99;74.11;95740.06;5072137;28;20155;-85
2022/01/16 06:23:07;;;;;;;41.43;18.83;;;;;;;1.04;73.62;95750.84;5072460;28;20165;-85
2022/01/16 06:25:32;;;;;;;36.40;16.10;;;;;;;1.28;74.75;95804.19;5070856;28;20202;-85
2022/01/16 06:27:58;;;;;;;20.43;11.00;;;;;;;1.33;73.48;95812.38;5072094;28;20196;-85
2022/01/16 06:30:23;;;;;;;21.73;10.03;;;;;;;1.07;72.32;95780.88;5070600;28;20593;-85
2022/01/16 06:32:49;;;;;;;16.03;9.30;;;;;;;0.96;72.14;95774.00;5070254;28;20177;-85
2022/01/16 06:35:15;;;;;;;17.83;9.10;;;;;;;1.02;71.72;95778.69;5070800;28;20167;-85
2022/01/16 06:37:41;;;;;;;15.63;8.93;;;;;;;1.05;72.59;95800.91;5062022;28;20175;-85
2022/01/16 06:40:07;;;;;;;21.60;11.00;;;;;;;1.39;72.52;95854.16;5062747;28;20653;-84
2022/01/16 06:42:33;;;;;;;21.67;12.37;;;;;;;0.93;72.29;95769.09;5042175;28;20178;-85
2022/01/16 06:44:59;;;;;;;22.83;12.57;;;;;;;1.03;73.51;95777.75;5063299;28;20167;-85
2022/01/16 06:47:24;;;;;;;30.07;14.60;;;;;;;1.03;73.30;95766.56;5050694;28;20177;-84
2022/01/16 06:49:49;;;;;;;31.03;15.93;;;;;;;1.18;73.37;95761.81;5050248;28;20665;-85
2022/01/16 06:52:15;;;;;;;41.53;17.10;;;;;;;1.64;73.53;95837.34;5051744;28;20167;-85
2022/01/16 06:54:41;;;;;;;32.43;17.13;;;;;;;1.72;73.17;95834.91;5052135;28;20193;-85
2022/01/16 06:57:08;;;;;;;30.43;15.13;;;;;;;1.71;71.94;95827.25;5051816;28;20596;-84
2022/01/16 06:59:35;;;;;;;27.07;13.67;;;;;;;1.62;73.03;95804.69;5050422;28;20171;-85
2022/01/16 07:02:01;;;;;;;21.33;12.87;;;;;;;1.62;72.28;95804.69;5050528;28;20623;-84
2022/01/16 07:04:27;;;;;;;19.83;11.83;;;;;;;1.86;72.36;95854.47;5050421;28;20270;-83
2022/01/16 07:06:53;;;;;;;28.57;14.80;;;;;;;1.92;72.08;95863.50;5050103;28;20219;-84
2022/01/16 07:09:18;;;;;;;34.43;17.23;;;;;;;1.58;71.58;95798.94;5052089;28;20203;-83
2022/01/16 07:11:44;;;;;;;73.20;34.97;;;;;;;1.69;71.90;95804.03;5051603;28;20163;-85
2022/01/16 07:14:09;;;;;;;39.93;18.93;;;;;;;2.24;71.14;95871.91;5051670;28;20155;-84
2022/01/16 07:16:34;;;;;;;33.17;18.23;;;;;;;2.03;70.49;95812.28;5050266;28;20616;-83
2022/01/16 07:19:00;;;;;;;38.03;21.40;;;;;;;2.60;70.45;95810.63;5051556;28;21026;-83
2022/01/16 07:21:25;;;;;;;37.93;19.13;;;;;;;3.46;67.88;95855.66;5051824;28;20179;-83
2022/01/16 07:23:53;;;;;;;41.97;20.13;;;;;;;4.45;65.10;95884.31;5051581;28;20558;-83
2022/01/16 07:26:19;;;;;;;68.97;25.40;;;;;;;4.91;62.84;95877.25;5051611;28;20148;-84
2022/01/16 07:28:45;;;;;;;65.73;26.53;;;;;;;6.46;60.47;95874.50;5051397;28;20174;-84
2022/01/16 07:31:11;;;;;;;949.00;466.53;;;;;;;8.33;54.83;95886.41;5051375;28;20198;-84
2022/01/16 07:33:36;;;;;;;205.63;92.67;;;;;;;9.61;50.35;95829.63;5051598;28;20545;-84
2022/01/16 07:36:03;;;;;;;159.73;37.60;;;;;;;11.10;46.38;95834.41;5054809;28;20183;-84
2022/01/16 07:38:29;;;;;;;19.50;12.00;;;;;;;12.02;42.52;95816.63;5056985;28;20186;-84
2022/01/16 07:40:54;;;;;;;16.70;10.80;;;;;;;14.10;40.13;95875.47;5060780;28;20630;-84
2022/01/16 07:43:20;;;;;;;19.57;11.57;;;;;;;15.58;36.36;95863.75;5056763;28;20260;-85
2022/01/16 07:45:45;;;;;;;16.07;10.43;;;;;;;15.51;33.82;95834.59;5052708;28;20175;-83
2022/01/16 07:48:11;;;;;;;16.87;10.73;;;;;;;15.78;33.99;95861.75;5055532;28;20217;-85
2022/01/16 07:50:38;;;;;;;21.43;11.40;;;;;;;16.91;32.47;95878.13;5055151;28;20190;-85
2022/01/16 07:53:04;;;;;;;19.97;12.33;;;;;;;17.09;30.51;95840.84;5055475;28;20650;-85
2022/01/16 07:55:30;;;;;;;19.98;13.10;;;;;;;16.78;30.53;95828.56;5053964;28;20642;-85
2022/01/16 07:57:56;;;;;;;23.00;12.97;;;;;;;15.36;31.73;95868.63;5057517;28;20175;-84
2022/01/16 08:00:23;;;;;;;30.80;15.37;;;;;;;14.76;34.01;95865.50;5057387;28;20242;-83
2022/01/16 08:02:52;;;;;;;18.77;9.93;;;;;;;14.06;33.58;95892.81;5053703;28;20171;-84
2022/01/16 08:05:19;;;;;;;17.97;10.67;;;;;;;13.32;35.53;95811.88;5056164;28;20197;-86
2022/01/16 08:07:45;;;;;;;15.73;11.00;;;;;;;14.13;35.02;95883.03;5064880;28;20762;-87
2022/01/16 08:10:11;;;;;;;16.77;10.40;;;;;;;13.26;35.12;95884.09;5054889;28;20297;-86
2022/01/16 08:12:37;;;;;;;14.27;8.10;;;;;;;11.91;37.42;95840.94;5061551;28;20185;-86
2022/01/16 08:15:04;;;;;;;12.40;8.50;;;;;;;10.80;38.89;95829.31;5060902;28;20183;-85
2022/01/16 08:17:30;;;;;;;21.67;11.60;;;;;;;9.79;41.29;95860.84;5059013;28;20178;-84
2022/01/16 08:19:55;;;;;;;14.80;8.77;;;;;;;8.92;43.84;95823.72;5067108;28;20200;-84
2022/01/16 08:22:21;;;;;;;17.00;9.70;;;;;;;8.27;44.86;95828.56;5074829;28;20238;-83
2022/01/16 08:24:46;;;;;;;14.53;8.57;;;;;;;7.59;46.14;95823.94;5073572;28;20170;-83
2022/01/16 08:27:13;;;;;;;15.63;10.23;;;;;;;7.53;47.69;95876.97;5059161;28;20163;-86
2022/01/16 08:29:39;;;;;;;20.53;10.83;;;;;;;6.63;48.93;95786.41;5060390;28;20190;-85
2022/01/16 08:32:05;;;;;;;18.83;10.83;;;;;;;6.88;50.61;95822.06;5059185;28;20168;-85
2022/01/16 08:34:30;;;;;;;15.50;8.73;;;;;;;7.03;50.15;95823.03;5064061;28;20199;-84
2022/01/16 08:36:56;;;;;;;21.97;11.13;;;;;;;7.63;49.50;95811.28;5064036;28;20209;-85
2022/01/16 08:39:23;;;;;;;16.37;10.07;;;;;;;8.47;48.47;95842.91;5060529;28;20189;-86
2022/01/16 08:41:48;;;;;;;18.53;9.63;;;;;;;8.48;46.37;95820.09;5064848;28;20559;-86
2022/01/16 08:44:14;;;;;;;16.83;9.40;;;;;;;8.72;46.35;95853.25;5064648;28;20171;-85
2022/01/16 08:46:40;;;;;;;17.77;8.93;;;;;;;8.49;45.65;95826.97;5063849;28;20171;-87
2022/01/16 08:49:05;;;;;;;17.50;9.87;;;;;;;8.46;47.38;95827.34;5060513;28;20175;-85
2022/01/16 08:51:31;;;;;;;13.30;8.00;;;;;;;8.76;47.09;95842.22;5054154;28;20170;-85
2022/01/16 08:53:57;;;;;;;21.87;10.17;;;;;;;9.01;46.06;95821.84;5065687;28;20171;-90
2022/01/16 08:56:22;;;;;;;12.80;8.07;;;;;;;9.18;45.69;95794.44;5061104;28;20549;-86
2022/01/16 08:58:48;;;;;;;15.40;8.83;;;;;;;9.48;45.45;95808.44;5062309;28;20237;-86
2022/01/16 09:01:13;;;;;;;15.30;8.37;;;;;;;9.52;44.64;95793.09;5061621;28;20174;-86
2022/01/16 09:03:39;;;;;;;11.70;7.37;;;;;;;9.57;43.91;95781.06;5063252;28;20212;-85
2022/01/16 09:06:05;;;;;;;15.27;8.97;;;;;;;10.04;44.21;95856.94;5061342;28;20167;-83
2022/01/16 09:08:30;;;;;;;10.30;6.67;;;;;;;9.59;43.66;95773.00;5060550;28;20221;-83
2022/01/16 09:10:56;;;;;;;10.33;5.77;;;;;;;9.77;43.19;95805.78;5063107;28;20199;-88
2022/01/16 09:13:21;;;;;;;9.50;5.83;;;;;;;9.55;43.67;95772.53;5057476;28;20532;-88
2022/01/16 09:15:49;;;;;;;32.93;19.13;;;;;;;10.13;43.84;95842.69;5057297;28;20182;-86
2022/01/16 09:18:16;;;;;;;25.73;13.47;;;;;;;10.07;44.24;95832.06;5062914;28;20241;-85
2022/01/16 09:20:42;;;;;;;14.27;8.43;;;;;;;9.66;43.63;95776.53;5061590;28;20158;-86
2022/01/16 09:23:08;;;;;;;15.03;7.77;;;;;;;9.61;43.53;95776.25;5064192;28;20186;-86
2022/01/16 09:25:35;;;;;;;14.70;7.90;;;;;;;10.04;44.06;95835.06;5055531;28;20202;-84
2022/01/16 09:28:00;;;;;;;11.33;6.87;;;;;;;9.58;43.78;95772.19;5056814;28;20179;-85
2022/01/16 09:30:26;;;;;;;10.73;6.33;;;;;;;9.71;43.89;95787.31;5059889;28;20692;-85
2022/01/16 09:32:51;;;;;;;14.43;7.47;;;;;;;9.55;44.01;95758.56;5059583;28;20710;-85
2022/01/16 09:35:17;;;;;;;9.10;6.27;;;;;;;9.84;43.57;95809.34;5060350;28;20166;-83
2022/01/16 09:37:44;;;;;;;11.10;7.30;;;;;;;9.25;43.94;95740.19;5060289;28;20201;-85
2022/01/16 09:40:12;;;;;;;12.37;6.47;;;;;;;9.61;43.51;95819.13;5056730;28;20167;-88
2022/01/16 09:42:37;;;;;;;21.83;7.87;;;;;;;9.27;44.07;95767.09;5052687;28;20183;-85
2022/01/16 09:45:06;;;;;;;12.90;8.70;;;;;;;9.02;44.55;95752.56;5062936;28;20175;-86
2022/01/16 09:47:31;;;;;;;14.47;7.33;;;;;;;8.92;44.89;95754.63;5059708;28;20642;-85
2022/01/16 09:49:57;;;;;;;15.60;7.63;;;;;;;8.66;44.81;95726.94;5056591;28;20190;-87
2022/01/16 09:52:22;;;;;;;13.60;7.03;;;;;;;8.98;45.23;95767.06;5059605;28;20185;-84
2022/01/16 09:54:49;;;;;;;11.83;6.20;;;;;;;8.91;46.03;95737.22;5062197;28;20182;-88
2022/01/16 09:57:16;;;;;;;8.73;5.80;;;;;;;9.22;45.38;95794.91;5060861;28;20187;-86
2022/01/16 09:59:43;;;;;;;9.87;7.07;;;;;;;9.08;45.42;95794.69;5059802;28;20167;-89
2022/01/16 10:02:09;;;;;;;40.93;20.20;;;;;;;8.82;45.98;95754.06;5058708;28;20201;-87
2022/01/16 10:04:43;;;;;;;16.50;7.80;;;;;;;9.09;46.11;95790.25;5056780;28;20650;-84
2022/01/16 10:07:13;;;;;;;10.90;6.57;;;;;;;8.70;45.87;95717.75;5059515;28;20222;-87
2022/01/16 10:09:42;;;;;;;11.93;5.83;;;;;;;8.56;45.69;95721.13;5061323;28;20333;-88
2022/01/16 10:12:17;;;;;;;7.20;5.50;;;;;;;8.47;46.10;95703.03;5059470;28;20173;-86
2022/01/16 10:14:47;;;;;;;8.03;5.73;;;;;;;8.69;46.00;95758.09;5054643;28;20178;-86
2022/01/16 10:17:42;;;;;;;14.93;8.37;;;;;;;8.50;46.18;95760.38;5063632;28;20166;-88
2022/01/16 10:20:09;;;;;;;14.47;8.13;;;;;;;8.42;47.40;95760.44;5062176;28;20169;-86
2022/01/16 10:22:43;;;;;;;16.33;7.63;;;;;;;8.31;47.60;95772.97;5059389;28;20681;-85
2022/01/16 10:25:10;;;;;;;15.43;7.17;;;;;;;8.07;47.63;95746.06;5056796;28;20664;-86
2022/01/16 10:27:38;;;;;;;12.33;7.30;;;;;;;7.88;48.03;95739.44;5043036;28;20261;-87
2022/01/16 10:30:08;;;;;;;10.03;6.73;;;;;;;8.00;48.06;95759.03;5061538;28;20190;-86
2022/01/16 10:32:39;;;;;;;12.00;6.90;;;;;;;7.60;48.43;95760.06;5061580;28;20262;-86
2022/01/16 10:35:14;;;;;;;16.30;8.83;;;;;;;7.06;50.35;95759.06;5056302;28;20171;-87
2022/01/16 10:37:44;;;;;;;12.93;7.70;;;;;;;7.08;50.96;95747.44;5058620;28;20182;-87
2022/01/16 10:40:16;;;;;;;16.13;8.43;;;;;;;6.97;50.86;95713.78;5056625;28;20646;-84
2022/01/16 10:42:48;;;;;;;13.87;7.70;;;;;;;7.17;51.29;95716.84;5056644;28;20185;-88
2022/01/16 10:45:16;;;;;;;12.57;6.83;;;;;;;7.41;49.82;95740.31;5056829;28;20564;-89
2022/01/16 10:47:54;;;;;;;13.20;7.17;;;;;;;7.07;49.52;95708.34;5052702;28;20181;-88
2022/01/16 10:50:47;;;;;;;12.00;6.90;;;;;;;6.59;50.40;95676.06;5056249;28;20237;-89
2022/01/16 10:53:17;;;;;;;13.80;8.73;;;;;;;6.84;51.65;95739.63;5058269;28;20194;-88
2022/01/16 10:55:51;;;;;;;10.67;6.93;;;;;;;6.83;51.06;95728.34;5054891;28;20183;-88
2022/01/16 10:58:24;;;;;;;16.10;7.90;;;;;;;6.83;50.95;95722.31;5061300;28;20171;-89
2022/01/16 11:00:54;;;;;;;13.23;7.30;;;;;;;6.85;51.05;95722.94;5052759;28;20185;-88
2022/01/16 11:03:21;;;;;;;14.47;8.60;;;;;;;6.52;51.54;95674.28;5054809;28;20171;-88
2022/01/16 11:05:49;;;;;;;14.60;8.03;;;;;;;6.25;50.88;95630.97;5056283;28;20182;-88
2022/01/16 11:08:20;;;;;;;14.00;7.63;;;;;;;6.57;50.98;95679.84;5059856;28;20582;-88
2022/01/16 11:10:48;;;;;;;13.53;8.10;;;;;;;6.55;51.95;95689.63;5052837;28;20233;-87
2022/01/16 11:13:19;;;;;;;24.83;8.50;;;;;;;6.30;50.55;95634.75;5060720;28;20258;-88
2022/01/16 11:15:53;;;;;;;14.57;8.70;;;;;;;6.48;51.85;95645.03;5062728;28;20641;-89
2022/01/16 11:18:24;;;;;;;12.40;7.90;;;;;;;6.87;50.32;95717.53;5057264;28;20254;-89
2022/01/16 11:23:43;;;;;;;12.93;7.40;;;;;;;6.64;51.31;95665.94;5064308;28;20163;-86
2022/01/16 11:26:09;;;;;;;13.13;7.33;;;;;;;6.84;50.69;95671.59;5065326;28;20166;-85
2022/01/16 11:28:34;;;;;;;11.67;7.20;;;;;;;6.43;50.13;95611.50;5062478;28;20237;-83
2022/01/16 11:31:03;;;;;;;12.23;7.30;;;;;;;6.62;50.79;95625.22;5065885;28;20187;-86
2022/01/16 11:33:30;;;;;;;12.73;7.93;;;;;;;6.67;50.11;95649.06;5067358;28;20163;-87
2022/01/16 11:35:58;;;;;;;12.70;7.73;;;;;;;6.25;51.03;95650.09;5064422;28;20265;-84
2022/01/16 11:38:33;;;;;;;14.00;7.97;;;;;;;6.39;51.69;95687.88;5061261;28;20289;-83
2022/01/16 11:41:10;;;;;;;14.27;8.37;;;;;;;6.15;52.34;95669.53;5057683;28;20205;-86
2022/01/16 11:43:37;;;;;;;12.87;7.80;;;;;;;6.00;53.18;95632.78;5066202;28;20251;-86
2022/01/16 11:46:10;;;;;;;14.70;7.67;;;;;;;6.30;52.52;95675.78;5061895;28;20665;-84
2022/01/16 11:48:46;;;;;;;14.37;8.00;;;;;;;6.37;52.61;95679.34;5063054;28;20170;-89
2022/01/16 11:51:34;;;;;;;12.23;6.97;;;;;;;6.68;55.53;95675.06;5062224;28;20197;-87
2022/01/16 11:54:09;;;;;;;14.20;7.63;;;;;;;7.09;51.28;95678.38;5062140;28;20185;-88
2022/01/16 11:56:38;;;;;;;13.60;7.90;;;;;;;7.38;51.70;95679.59;5062271;28;20242;-89
2022/01/16 11:59:31;;;;;;;11.43;7.87;;;;;;;7.70;50.02;95674.19;5062938;28;20174;-88
2022/01/16 12:02:08;;;;;;;14.20;7.87;;;;;;;7.84;49.67;95668.22;5066462;28;20166;-89
2022/01/16 12:04:34;;;;;;;13.40;8.87;;;;;;;7.90;47.46;95669.31;5054735;28;20560;-85
2022/01/16 12:07:19;;;;;;;18.10;9.20;;;;;;;7.83;48.07;95671.81;5053425;28;20233;-88
2022/01/16 12:12:31;;;;;;;15.53;8.77;;;;;;;7.54;48.43;95653.31;5053556;28;20183;-89
2022/01/16 12:15:15;;;;;;;15.70;8.67;;;;;;;7.65;50.59;95657.34;5061082;28;20186;-89